Time;durP1;ratioP1;P1;durP2;ratioP2;P2;SDS_P1;SDS_P2;PMS_P1;PMS_P2;Temp;Humidity;BMP_temperature;BMP_pressure;BME280_temperature;BME280_humidity;BME280_pressure;Samples;Min_cycle;Max_cycle;Signal;HPM_P1;HPM_P2
2021/12/01 00:00:18;;;;;;;4.70;0.80;;;6.10;99.90;;;;;;5012186;28;20387;-51
2021/12/01 00:02:44;;;;;;;3.50;0.75;;;6.00;99.90;;;;;;5011347;28;20389;-59
2021/12/01 00:05:10;;;;;;;5.00;0.90;;;5.90;99.90;;;;;;5012294;28;20443;-51
2021/12/01 00:07:37;;;;;;;3.70;0.90;;;5.90;99.90;;;;;;5011835;28;20389;-51
2021/12/01 00:10:08;;;;;;;4.40;0.75;;;5.90;99.90;;;;;;5011236;28;20936;-51
2021/12/01 00:12:34;;;;;;;3.50;0.90;;;5.80;99.90;;;;;;5012058;28;20389;-51
2021/12/01 00:15:01;;;;;;;4.97;0.77;;;5.80;99.90;;;;;;5011186;28;20413;-53
2021/12/01 00:17:26;;;;;;;3.40;0.80;;;5.70;99.90;;;;;;5012403;28;20868;-53
2021/12/01 00:19:53;;;;;;;4.40;0.90;;;5.80;99.90;;;;;;5007495;28;20482;-52
2021/12/01 00:22:20;;;;;;;3.60;0.90;;;5.90;99.90;;;;;;5003047;28;20408;-53
2021/12/01 00:24:45;;;;;;;3.85;0.90;;;5.90;99.90;;;;;;5011016;28;20924;-56
2021/12/01 00:27:11;;;;;;;3.77;1.00;;;5.80;99.90;;;;;;4992386;28;20469;-51
2021/12/01 00:29:37;;;;;;;4.13;0.90;;;5.70;99.90;;;;;;4992262;28;20434;-51
2021/12/01 00:32:04;;;;;;;4.57;1.10;;;5.70;99.90;;;;;;4991286;28;20525;-54
2021/12/01 00:34:29;;;;;;;3.60;0.90;;;5.70;99.90;;;;;;4991711;28;20457;-53
2021/12/01 00:36:55;;;;;;;4.30;1.10;;;5.60;99.90;;;;;;4991182;28;20841;-52
2021/12/01 00:39:21;;;;;;;3.50;0.90;;;5.60;99.90;;;;;;4991934;28;20498;-54
2021/12/01 00:41:49;;;;;;;4.85;1.02;;;5.60;99.90;;;;;;4991172;28;20406;-52
2021/12/01 00:44:15;;;;;;;3.70;0.80;;;5.70;99.90;;;;;;4991764;28;20800;-51
2021/12/01 00:46:45;;;;;;;3.93;0.93;;;5.80;99.90;;;;;;4992145;28;20397;-60
2021/12/01 00:49:11;;;;;;;3.35;0.90;;;5.70;99.90;;;;;;4991971;28;20856;-51
2021/12/01 00:51:37;;;;;;;4.70;1.00;;;5.90;99.90;;;;;;5000755;28;20383;-51
2021/12/01 00:54:02;;;;;;;3.88;0.90;;;5.60;99.90;;;;;;5001612;28;20630;-53
2021/12/01 00:56:28;;;;;;;3.50;0.90;;;5.60;99.90;;;;;;5002251;28;20394;-53
2021/12/01 00:58:54;;;;;;;3.40;0.70;;;5.50;99.90;;;;;;4991057;28;20864;-53
2021/12/01 01:01:19;;;;;;;3.10;0.90;;;5.50;99.90;;;;;;4991521;28;20438;-54
2021/12/01 01:03:45;;;;;;;3.40;0.70;;;5.60;99.90;;;;;;4991206;28;20390;-59
2021/12/01 01:06:11;;;;;;;3.60;0.70;;;5.60;99.90;;;;;;4990424;28;20527;-53
2021/12/01 01:08:36;;;;;;;3.30;0.50;;;5.60;99.90;;;;;;4990926;28;20457;-53
2021/12/01 01:16:22;;;;;;;3.30;0.80;;;5.50;99.90;;;;;;4991541;28;20389;-53
2021/12/01 01:18:59;;;;;;;3.20;0.70;;;5.50;99.90;;;;;;4990787;28;20497;-54
2021/12/01 01:21:28;;;;;;;4.50;0.90;;;5.50;99.90;;;;;;4990923;28;20465;-54
2021/12/01 01:23:54;;;;;;;4.15;0.75;;;5.60;99.90;;;;;;4990115;28;20395;-54
2021/12/01 01:26:21;;;;;;;3.35;0.80;;;5.50;99.90;;;;;;4991680;28;20939;-53
2021/12/01 01:28:48;;;;;;;3.13;0.70;;;5.50;99.90;;;;;;4990418;28;20405;-54
2021/12/01 01:31:14;;;;;;;3.70;0.80;;;5.50;99.90;;;;;;4991091;28;20383;-53
2021/12/01 01:33:40;;;;;;;3.28;0.60;;;5.50;99.90;;;;;;4991224;28;20418;-54
2021/12/01 01:36:06;;;;;;;4.00;0.73;;;5.60;99.90;;;;;;4990355;28;20391;-53
2021/12/01 01:38:32;;;;;;;3.70;0.80;;;5.50;99.90;;;;;;4990904;28;20807;-54
2021/12/01 01:41:06;;;;;;;3.20;0.80;;;5.50;99.90;;;;;;4994499;28;20401;-56
2021/12/01 01:43:33;;;;;;;3.20;0.63;;;5.50;99.90;;;;;;5002708;28;20389;-53
2021/12/01 01:45:59;;;;;;;3.30;0.80;;;5.50;99.90;;;;;;4990109;28;20418;-53
2021/12/01 01:48:32;;;;;;;3.20;0.80;;;5.40;99.90;;;;;;4990648;28;20417;-53
2021/12/01 01:51:05;;;;;;;4.43;1.30;;;5.40;99.90;;;;;;4990028;28;20784;-52
2021/12/01 01:53:33;;;;;;;3.10;0.63;;;5.40;99.90;;;;;;4990525;28;20379;-53
2021/12/01 01:56:01;;;;;;;4.22;0.70;;;5.40;99.90;;;;;;4989903;28;20391;-53
2021/12/01 01:58:28;;;;;;;4.10;0.90;;;5.40;99.90;;;;;;4990565;28;20470;-54
2021/12/01 02:01:07;;;;;;;3.60;0.80;;;5.30;99.90;;;;;;4989900;28;20394;-55
2021/12/01 02:03:44;;;;;;;4.28;1.10;;;5.40;99.90;;;;;;4990653;28;20382;-53
2021/12/01 02:06:12;;;;;;;3.80;0.90;;;6.50;99.90;;;;;;5007938;28;20397;-53
2021/12/01 02:08:40;;;;;;;3.35;0.82;;;5.40;99.90;;;;;;5009143;28;20409;-53
2021/12/01 02:11:11;;;;;;;4.00;1.00;;;5.50;99.90;;;;;;5001384;28;20580;-54
2021/12/01 02:13:38;;;;;;;3.60;0.80;;;5.50;99.90;;;;;;5010088;28;20394;-54
2021/12/01 02:16:06;;;;;;;3.50;1.23;;;5.40;99.90;;;;;;4994020;28;20391;-53
2021/12/01 02:18:31;;;;;;;3.20;0.90;;;5.40;99.90;;;;;;4990643;28;20506;-53
2021/12/01 02:21:03;;;;;;;4.07;0.93;;;5.50;99.90;;;;;;4988877;28;20478;-53
2021/12/01 02:23:29;;;;;;;4.50;0.90;;;5.50;99.90;;;;;;4990509;28;20390;-53
2021/12/01 02:25:55;;;;;;;3.45;0.90;;;5.60;99.90;;;;;;4989467;28;20860;-53
2021/12/01 02:28:21;;;;;;;4.10;1.00;;;5.60;99.90;;;;;;4990556;28;20386;-53
2021/12/01 02:30:47;;;;;;;3.60;1.00;;;5.50;99.90;;;;;;4989310;28;20398;-59
2021/12/01 02:33:13;;;;;;;3.50;1.10;;;5.60;99.90;;;;;;4990196;28;20401;-54
2021/12/01 02:35:39;;;;;;;3.65;0.90;;;5.70;99.90;;;;;;4989987;28;20421;-51
2021/12/01 02:38:05;;;;;;;3.30;0.80;;;5.70;99.90;;;;;;4989186;28;20478;-53
2021/12/01 02:40:32;;;;;;;3.65;0.98;;;5.60;99.90;;;;;;4990026;28;20469;-55
2021/12/01 02:42:57;;;;;;;3.90;1.10;;;5.70;99.90;;;;;;4989185;28;20426;-54
2021/12/01 02:45:23;;;;;;;3.90;1.10;;;5.70;99.90;;;;;;4990167;28;20848;-53
2021/12/01 02:47:49;;;;;;;3.87;1.20;;;5.70;99.90;;;;;;4989172;28;20887;-56
2021/12/01 02:50:15;;;;;;;4.57;1.17;;;5.70;99.90;;;;;;4989873;28;20402;-54
2021/12/01 02:52:41;;;;;;;5.10;1.20;;;5.80;99.90;;;;;;4990071;28;20475;-51
2021/12/01 02:55:09;;;;;;;3.80;1.20;;;5.70;99.90;;;;;;4989116;28;21126;-51
2021/12/01 02:57:50;;;;;;;4.32;1.00;;;5.70;99.90;;;;;;4990132;28;20398;-53
2021/12/01 03:00:18;;;;;;;4.10;1.10;;;5.70;99.90;;;;;;4989935;28;20398;-54
2021/12/01 03:02:45;;;;;;;4.60;0.90;;;5.60;99.90;;;;;;4988710;28;20394;-51
2021/12/01 03:05:11;;;;;;;3.50;1.10;;;5.70;99.90;;;;;;4989421;28;20516;-57
2021/12/01 03:07:38;;;;;;;4.40;1.13;;;5.70;99.90;;;;;;4989789;28;20390;-53
2021/12/01 03:10:05;;;;;;;5.77;1.30;;;5.80;99.90;;;;;;4988813;28;20410;-51
2021/12/01 03:12:35;;;;;;;4.10;1.27;;;5.90;99.90;;;;;;4987390;28;20477;-54
2021/12/01 03:15:01;;;;;;;3.78;1.15;;;5.90;99.90;;;;;;4988715;28;20427;-53
2021/12/01 03:17:28;;;;;;;4.43;1.15;;;6.00;99.90;;;;;;4989243;28;20387;-53
2021/12/01 03:19:54;;;;;;;3.80;1.20;;;5.80;99.90;;;;;;4988701;28;20387;-54
2021/12/01 03:22:20;;;;;;;3.72;1.00;;;5.80;99.90;;;;;;4989689;28;20390;-54
2021/12/01 03:24:47;;;;;;;4.60;1.10;;;5.70;99.90;;;;;;4989442;28;20394;-59
2021/12/01 03:27:12;;;;;;;4.97;1.17;;;5.70;99.90;;;;;;4989036;28;20387;-53
2021/12/01 03:29:38;;;;;;;4.10;1.00;;;5.60;99.90;;;;;;4988660;28;20744;-53
2021/12/01 03:32:06;;;;;;;4.35;1.17;;;5.50;99.90;;;;;;4989429;28;20788;-54
2021/12/01 03:34:33;;;;;;;3.30;0.85;;;5.50;99.90;;;;;;4993269;28;20501;-53
2021/12/01 03:36:59;;;;;;;4.30;1.20;;;5.60;99.90;;;;;;4992367;28;20386;-54
2021/12/01 03:39:25;;;;;;;3.70;1.00;;;5.60;99.90;;;;;;4993340;28;20402;-54
2021/12/01 03:41:51;;;;;;;5.55;1.08;;;5.60;99.90;;;;;;4992391;28;20742;-54
2021/12/01 03:44:17;;;;;;;3.40;1.00;;;5.70;99.90;;;;;;4992842;28;20401;-53
2021/12/01 03:46:42;;;;;;;4.37;0.90;;;5.80;99.90;;;;;;4992714;28;20471;-53
2021/12/01 03:49:08;;;;;;;3.90;1.30;;;5.60;99.90;;;;;;4992229;28;20951;-53
2021/12/01 03:51:34;;;;;;;3.83;1.00;;;6.20;99.90;;;;;;4993058;28;20449;-53
2021/12/01 03:54:01;;;;;;;4.13;1.13;;;5.60;99.90;;;;;;4992013;28;20417;-53
2021/12/01 03:56:27;;;;;;;3.80;0.90;;;5.70;99.90;;;;;;4993113;28;20448;-54
2021/12/01 03:58:53;;;;;;;3.90;1.07;;;5.80;99.90;;;;;;4992222;28;20378;-53
2021/12/01 04:01:19;;;;;;;3.58;1.15;;;5.90;99.90;;;;;;4999837;28;20493;-53
2021/12/01 04:03:45;;;;;;;4.18;1.10;;;5.70;99.90;;;;;;5011683;28;20480;-57
2021/12/01 04:06:11;;;;;;;5.80;1.40;;;5.70;99.90;;;;;;5012178;28;20726;-53
2021/12/01 04:08:37;;;;;;;4.00;1.15;;;5.80;99.90;;;;;;5011990;28;20848;-53
2021/12/01 04:11:03;;;;;;;4.90;1.30;;;5.80;99.90;;;;;;5010707;28;20404;-54
2021/12/01 04:13:29;;;;;;;4.37;1.10;;;5.90;99.90;;;;;;5011624;28;20392;-54
2021/12/01 04:15:55;;;;;;;4.10;1.20;;;5.90;99.90;;;;;;5010449;28;20396;-53
2021/12/01 04:18:21;;;;;;;4.70;1.20;;;5.90;99.90;;;;;;5011872;28;20396;-57
2021/12/01 04:20:46;;;;;;;4.90;1.40;;;5.90;99.90;;;;;;5011547;28;20384;-59
2021/12/01 04:23:12;;;;;;;5.70;1.30;;;4.90;99.90;;;;;;5011160;28;20381;-51
2021/12/01 04:25:38;;;;;;;3.95;1.48;;;5.90;99.90;;;;;;5012068;28;20738;-51
2021/12/01 04:28:04;;;;;;;5.10;1.50;;;5.90;99.90;;;;;;5011016;28;20734;-51
2021/12/01 04:30:30;;;;;;;4.70;1.60;;;6.10;99.90;;;;;;5011668;28;20438;-51
2021/12/01 04:32:57;;;;;;;5.15;1.60;;;6.00;99.90;;;;;;5010880;28;20381;-51
2021/12/01 04:35:24;;;;;;;4.30;1.50;;;6.00;99.90;;;;;;5011806;28;20417;-52
2021/12/01 04:37:51;;;;;;;4.20;1.40;;;6.00;99.90;;;;;;5010735;28;20396;-57
2021/12/01 04:40:17;;;;;;;4.10;1.40;;;5.90;99.90;;;;;;5011420;28;20400;-55
2021/12/01 04:42:43;;;;;;;4.50;1.60;;;6.10;99.90;;;;;;5011762;28;20380;-51
2021/12/01 04:45:18;;;;;;;4.90;1.40;;;6.10;99.90;;;;;;5009822;28;20560;-52
2021/12/01 04:47:50;;;;;;;5.23;1.40;;;6.10;99.90;;;;;;5011424;28;20377;-52
2021/12/01 04:50:19;;;;;;;4.60;1.25;;;6.30;99.90;;;;;;5011658;28;20901;-52
2021/12/01 04:52:45;;;;;;;4.20;1.08;;;6.30;99.90;;;;;;5009816;28;20871;-52
2021/12/01 04:55:11;;;;;;;4.85;0.95;;;6.40;99.90;;;;;;5010131;28;20399;-53
2021/12/01 04:57:45;;;;;;;3.53;0.90;;;6.40;99.90;;;;;;5010906;28;20405;-51
2021/12/01 05:00:17;;;;;;;4.30;1.10;;;6.30;99.90;;;;;;5010805;28;20381;-51
2021/12/01 05:02:43;;;;;;;3.57;0.97;;;6.40;99.90;;;;;;5010489;28;20385;-52
2021/12/01 05:05:09;;;;;;;3.80;0.90;;;6.50;99.90;;;;;;5009721;28;20396;-52
2021/12/01 05:07:35;;;;;;;4.30;1.10;;;6.50;99.90;;;;;;5009465;28;20928;-51
2021/12/01 05:10:00;;;;;;;4.70;1.10;;;6.50;99.90;;;;;;5010052;28;20452;-51
2021/12/01 05:12:26;;;;;;;4.60;1.35;;;6.50;99.90;;;;;;4997008;28;20413;-51
2021/12/01 05:14:52;;;;;;;4.25;1.05;;;6.50;99.90;;;;;;4994581;28;20426;-51
2021/12/01 05:17:20;;;;;;;4.10;0.90;;;6.50;99.90;;;;;;4999070;28;20405;-51
2021/12/01 05:19:46;;;;;;;3.67;0.95;;;6.50;99.90;;;;;;5002362;28;20827;-53
2021/12/01 05:22:11;;;;;;;5.10;1.20;;;6.50;99.90;;;;;;4989667;28;20433;-51
2021/12/01 05:24:37;;;;;;;4.23;1.50;;;6.60;99.90;;;;;;4996490;28;20464;-51
2021/12/01 05:27:04;;;;;;;4.80;1.33;;;6.50;99.90;;;;;;4989444;28;20418;-51
2021/12/01 05:29:30;;;;;;;4.05;1.13;;;6.50;99.90;;;;;;5001715;28;20405;-51
2021/12/01 05:31:57;;;;;;;5.65;1.27;;;6.50;99.90;;;;;;5008575;28;20384;-52
2021/12/01 05:34:24;;;;;;;3.55;0.93;;;6.50;99.90;;;;;;4990715;28;20411;-51
2021/12/01 05:36:51;;;;;;;4.00;1.10;;;6.30;99.90;;;;;;4995632;28;20414;-57
2021/12/01 05:39:17;;;;;;;3.90;1.00;;;6.30;99.90;;;;;;4994919;28;20401;-53
2021/12/01 05:41:43;;;;;;;4.90;1.20;;;6.40;99.90;;;;;;5004224;28;20480;-52
2021/12/01 05:44:09;;;;;;;3.60;0.85;;;6.40;99.90;;;;;;4989911;28;20411;-52
2021/12/01 05:46:35;;;;;;;4.28;1.05;;;6.40;99.90;;;;;;4990391;28;20383;-52
2021/12/01 05:49:02;;;;;;;3.70;0.90;;;6.40;99.90;;;;;;4995355;28;20414;-53
2021/12/01 05:51:28;;;;;;;4.38;1.05;;;6.40;99.90;;;;;;4991261;28;20470;-57
2021/12/01 05:53:54;;;;;;;3.70;0.90;;;6.50;99.90;;;;;;4994994;28;20892;-53
2021/12/01 05:56:20;;;;;;;3.50;0.73;;;6.40;99.90;;;;;;4988685;28;20398;-52
2021/12/01 05:58:45;;;;;;;4.50;1.00;;;6.40;99.90;;;;;;4990234;28;20405;-53
2021/12/01 06:01:11;;;;;;;4.10;1.10;;;6.40;99.90;;;;;;4999326;28;20600;-51
2021/12/01 06:03:39;;;;;;;3.43;0.63;;;6.40;99.90;;;;;;4989657;28;20402;-52
2021/12/01 06:06:04;;;;;;;3.60;0.73;;;6.50;99.90;;;;;;4994174;28;20469;-52
2021/12/01 06:08:30;;;;;;;3.88;1.05;;;6.60;99.90;;;;;;5001431;28;20425;-54
2021/12/01 06:10:56;;;;;;;3.70;0.80;;;6.70;99.90;;;;;;5008530;28;20431;-52
2021/12/01 06:13:24;;;;;;;3.40;0.60;;;6.70;99.90;;;;;;5009465;28;20377;-52
2021/12/01 06:15:50;;;;;;;3.50;0.70;;;6.70;99.90;;;;;;5008716;28;20439;-57
2021/12/01 06:18:17;;;;;;;3.50;0.80;;;6.60;99.90;;;;;;5009119;28;20495;-51
2021/12/01 06:20:42;;;;;;;4.20;0.90;;;6.70;99.90;;;;;;5008540;28;20484;-54
2021/12/01 06:23:08;;;;;;;3.10;0.60;;;6.70;99.90;;;;;;5007312;28;20484;-53
2021/12/01 06:25:35;;;;;;;4.10;0.60;;;6.80;99.90;;;;;;5008994;28;20396;-52
2021/12/01 06:28:00;;;;;;;3.50;0.60;;;6.70;99.90;;;;;;5008582;28;20415;-54
2021/12/01 06:30:31;;;;;;;3.70;0.80;;;6.70;99.90;;;;;;5008816;28;20867;-52
2021/12/01 06:32:57;;;;;;;3.72;0.65;;;6.70;99.90;;;;;;5007152;28;20408;-52
2021/12/01 06:35:22;;;;;;;4.00;0.57;;;6.80;99.90;;;;;;4994959;28;20410;-53
2021/12/01 06:37:50;;;;;;;3.80;0.60;;;6.70;99.90;;;;;;5003558;28;20831;-53
2021/12/01 06:40:16;;;;;;;5.60;0.82;;;6.60;99.90;;;;;;5006569;28;20395;-52
2021/12/01 06:42:43;;;;;;;3.53;0.65;;;6.70;99.90;;;;;;5009518;28;20416;-52
2021/12/01 06:45:11;;;;;;;3.80;0.70;;;6.60;99.90;;;;;;4999223;28;20413;-51
2021/12/01 06:47:43;;;;;;;3.42;0.60;;;6.60;99.90;;;;;;4994210;28;20429;-51
2021/12/01 06:50:10;;;;;;;3.45;0.60;;;6.50;99.90;;;;;;5008167;28;20894;-53
2021/12/01 06:52:38;;;;;;;3.40;0.70;;;6.60;99.90;;;;;;4988683;28;20460;-51
2021/12/01 06:55:05;;;;;;;4.40;0.55;;;6.70;99.90;;;;;;4989036;28;20414;-52
2021/12/01 06:57:31;;;;;;;3.70;0.60;;;6.70;99.90;;;;;;4990053;28;20437;-51
2021/12/01 06:59:56;;;;;;;3.50;0.60;;;6.70;99.90;;;;;;4988883;28;20911;-52
2021/12/01 07:02:23;;;;;;;3.40;0.60;;;6.80;99.90;;;;;;4989720;28;20410;-51
2021/12/01 07:04:48;;;;;;;3.42;0.60;;;6.80;99.90;;;;;;5005530;28;20484;-53
2021/12/01 07:07:14;;;;;;;3.40;0.60;;;6.80;99.90;;;;;;5018936;28;20391;-52
2021/12/01 07:09:44;;;;;;;3.28;0.60;;;6.90;99.90;;;;;;5024478;28;20613;-51
2021/12/01 07:12:10;;;;;;;4.00;0.50;;;7.00;99.90;;;;;;5012075;28;20661;-52
2021/12/01 07:14:35;;;;;;;3.60;0.70;;;7.00;99.90;;;;;;5024283;28;20910;-53
2021/12/01 07:17:01;;;;;;;3.37;0.70;;;7.10;99.90;;;;;;5032222;28;20433;-52
2021/12/01 07:19:27;;;;;;;3.38;0.50;;;7.00;99.90;;;;;;5027333;28;20508;-52
2021/12/01 07:21:52;;;;;;;3.20;0.50;;;7.10;99.90;;;;;;5008098;28;20803;-58
2021/12/01 07:24:20;;;;;;;3.40;0.57;;;7.20;99.90;;;;;;5020875;28;20778;-51
2021/12/01 07:26:46;;;;;;;3.58;0.80;;;7.10;99.90;;;;;;4993692;28;20410;-52
2021/12/01 07:29:11;;;;;;;4.28;0.60;;;7.00;99.90;;;;;;4992462;28;20454;-53
2021/12/01 07:31:38;;;;;;;3.70;0.80;;;7.10;99.90;;;;;;4992729;28;20429;-52
2021/12/01 07:34:03;;;;;;;3.20;0.50;;;7.10;99.90;;;;;;4991818;28;20509;-52
2021/12/01 07:36:29;;;;;;;4.10;0.60;;;7.20;99.90;;;;;;4992370;28;21062;-53
2021/12/01 07:38:56;;;;;;;4.50;0.60;;;7.10;99.90;;;;;;4993757;28;20390;-57
2021/12/01 07:41:22;;;;;;;3.70;0.70;;;7.10;99.90;;;;;;5005882;28;20406;-52
2021/12/01 07:43:48;;;;;;;4.40;0.70;;;7.30;99.90;;;;;;5005917;28;20377;-52
2021/12/01 07:46:14;;;;;;;3.40;0.60;;;7.20;99.90;;;;;;4997114;28;20441;-52
2021/12/01 07:48:40;;;;;;;3.20;0.60;;;7.30;99.90;;;;;;5002501;28;20439;-54
2021/12/01 07:51:05;;;;;;;3.30;0.60;;;7.40;99.90;;;;;;4999322;28;20385;-54
2021/12/01 07:53:31;;;;;;;3.50;0.60;;;7.40;99.90;;;;;;5003149;28;20493;-52
2021/12/01 07:55:57;;;;;;;3.40;0.50;;;7.40;99.90;;;;;;5004626;28;20977;-52
2021/12/01 07:58:23;;;;;;;4.05;0.60;;;7.40;99.90;;;;;;5011912;28;20945;-52
2021/12/01 08:00:49;;;;;;;3.30;0.50;;;7.40;99.90;;;;;;4997590;28;20410;-52
2021/12/01 08:03:14;;;;;;;3.30;0.60;;;7.30;99.90;;;;;;4991514;28;21017;-52
2021/12/01 08:05:40;;;;;;;4.40;0.50;;;7.30;99.90;;;;;;4992396;28;20403;-53
2021/12/01 08:08:06;;;;;;;3.07;0.43;;;7.30;99.90;;;;;;4991340;28;20399;-54
2021/12/01 08:10:32;;;;;;;3.47;0.47;;;7.40;99.90;;;;;;4992322;28;20401;-52
2021/12/01 08:13:00;;;;;;;4.20;0.50;;;7.50;99.90;;;;;;4993363;28;20395;-51
2021/12/01 08:15:27;;;;;;;3.60;0.60;;;7.50;99.90;;;;;;5031195;28;20407;-51
2021/12/01 08:17:53;;;;;;;3.22;0.50;;;7.70;99.90;;;;;;5031588;28;20383;-57
2021/12/01 08:20:20;;;;;;;3.30;0.40;;;7.60;99.90;;;;;;5030292;28;20375;-51
2021/12/01 08:22:46;;;;;;;3.80;0.40;;;7.50;99.90;;;;;;5030783;28;20387;-52
2021/12/01 08:25:12;;;;;;;3.50;0.47;;;7.60;99.90;;;;;;5030702;28;20455;-52
2021/12/01 08:27:38;;;;;;;3.20;0.40;;;7.60;99.90;;;;;;5031045;28;20872;-52
2021/12/01 08:30:06;;;;;;;3.35;0.43;;;7.70;99.90;;;;;;5030279;28;20383;-52
2021/12/01 08:32:31;;;;;;;4.15;0.60;;;7.70;99.90;;;;;;5031308;28;20398;-52
2021/12/01 08:34:57;;;;;;;3.53;0.50;;;7.80;99.90;;;;;;5021883;28;20497;-52
2021/12/01 08:37:23;;;;;;;4.70;0.47;;;7.80;99.90;;;;;;5011016;28;20444;-52
2021/12/01 08:39:50;;;;;;;3.40;0.40;;;7.90;99.90;;;;;;5010783;28;20396;-52
2021/12/01 08:42:21;;;;;;;4.40;0.50;;;8.00;99.90;;;;;;5000981;28;20411;-52
2021/12/01 08:44:51;;;;;;;3.30;0.40;;;8.30;99.90;;;;;;4995493;28;20938;-52
2021/12/01 08:47:20;;;;;;;3.40;0.60;;;8.30;99.90;;;;;;5000129;28;20474;-53
2021/12/01 08:49:47;;;;;;;3.28;0.50;;;8.40;99.90;;;;;;4989770;28;20386;-52
2021/12/01 08:52:13;;;;;;;3.20;0.40;;;8.60;99.90;;;;;;4990615;28;20907;-52
2021/12/01 08:54:39;;;;;;;5.00;0.50;;;8.80;99.90;;;;;;4991089;28;20413;-52
2021/12/01 08:57:06;;;;;;;3.55;0.50;;;9.80;99.90;;;;;;4990684;28;20382;-52
2021/12/01 08:59:32;;;;;;;3.80;0.60;;;10.70;99.90;;;;;;5009060;28;20400;-52
2021/12/01 09:02:00;;;;;;;3.60;0.50;;;11.30;99.90;;;;;;5003247;28;20879;-52
2021/12/01 09:04:26;;;;;;;3.90;0.70;;;11.30;99.90;;;;;;5006627;28;20409;-51
2021/12/01 09:06:52;;;;;;;4.00;0.70;;;11.70;99.90;;;;;;5007522;28;20377;-52
2021/12/01 09:09:18;;;;;;;3.70;0.70;;;12.30;99.90;;;;;;5007975;28;20976;-53
2021/12/01 09:11:51;;;;;;;4.55;0.60;;;10.30;99.90;;;;;;5006775;28;20883;-52
2021/12/01 09:14:18;;;;;;;3.30;0.30;;;9.70;99.90;;;;;;5007680;28;20416;-52
2021/12/01 09:16:44;;;;;;;3.50;0.40;;;9.40;99.90;;;;;;5009850;28;20428;-52
2021/12/01 09:19:10;;;;;;;3.40;0.50;;;9.20;99.90;;;;;;5006398;28;20484;-54
2021/12/01 09:21:36;;;;;;;4.40;0.40;;;9.20;99.90;;;;;;5007810;28;20930;-51
2021/12/01 09:24:03;;;;;;;3.25;0.40;;;9.20;99.90;;;;;;5009066;28;20381;-52
2021/12/01 09:26:28;;;;;;;3.47;0.50;;;9.30;99.90;;;;;;5009819;28;20392;-53
2021/12/01 09:28:54;;;;;;;4.00;0.40;;;9.20;99.90;;;;;;5007677;28;20390;-57
2021/12/01 09:31:20;;;;;;;3.57;0.40;;;9.20;99.90;;;;;;5006554;28;20393;-53
2021/12/01 09:33:46;;;;;;;3.33;0.50;;;9.00;99.90;;;;;;5009614;28;20743;-51
2021/12/01 09:36:12;;;;;;;3.20;0.30;;;9.20;99.90;;;;;;5008672;28;20871;-52
2021/12/01 09:38:38;;;;;;;3.22;0.43;;;9.00;99.90;;;;;;5009177;28;20388;-53
2021/12/01 09:41:04;;;;;;;3.30;0.40;;;8.90;99.90;;;;;;5007642;28;20545;-52
2021/12/01 09:43:31;;;;;;;3.30;0.40;;;8.90;99.90;;;;;;5007217;28;20420;-53
2021/12/01 09:45:59;;;;;;;3.90;0.40;;;8.90;99.90;;;;;;4996961;28;20910;-58
2021/12/01 09:48:26;;;;;;;3.60;0.47;;;8.90;99.90;;;;;;5008126;28;20890;-52
2021/12/01 09:50:52;;;;;;;3.75;0.40;;;8.80;99.90;;;;;;5001213;28;20414;-52
2021/12/01 09:53:19;;;;;;;4.67;0.50;;;8.90;99.90;;;;;;5005833;28;20403;-53
2021/12/01 09:55:45;;;;;;;3.50;0.50;;;9.00;99.90;;;;;;5009088;28;20508;-55
2021/12/01 09:58:15;;;;;;;3.50;0.40;;;8.90;99.90;;;;;;5008254;28;20479;-52
2021/12/01 10:00:55;;;;;;;3.47;0.40;;;8.90;99.90;;;;;;5009193;28;20388;-52
2021/12/01 10:03:21;;;;;;;3.10;0.30;;;8.90;99.90;;;;;;5007631;28;20466;-54
2021/12/01 10:06:01;;;;;;;3.10;0.30;;;9.00;99.90;;;;;;5009502;28;20411;-52
2021/12/01 10:08:36;;;;;;;3.50;0.30;;;8.90;99.90;;;;;;5007437;28;20428;-52
2021/12/01 10:11:14;;;;;;;6.45;2.42;;;9.10;99.90;;;;;;5008737;28;20396;-52
2021/12/01 10:13:43;;;;;;;3.40;0.80;;;9.10;99.90;;;;;;5008186;28;20455;-53
2021/12/01 10:16:12;;;;;;;3.70;0.80;;;9.10;99.90;;;;;;5007225;28;20576;-54
2021/12/01 10:18:47;;;;;;;3.70;0.77;;;9.10;99.90;;;;;;5006529;28;20404;-54
2021/12/01 10:21:21;;;;;;;4.20;0.50;;;9.20;99.90;;;;;;5005290;28;20393;-54
2021/12/01 10:23:48;;;;;;;4.72;1.25;;;9.30;99.90;;;;;;5007689;28;20893;-54
2021/12/01 10:26:16;;;;;;;4.10;1.30;;;9.30;99.90;;;;;;5007871;28;20859;-53
2021/12/01 10:29:18;;;;;;;5.60;1.67;;;9.40;99.90;;;;;;5008662;28;20436;-53
2021/12/01 10:31:47;;;;;;;3.83;0.50;;;9.40;99.90;;;;;;5000902;28;20435;-53
2021/12/01 10:34:31;;;;;;;54.90;19.63;;;9.40;99.90;;;;;;5007650;28;20502;-53
2021/12/01 10:37:31;;;;;;;4.53;1.02;;;9.40;99.90;;;;;;5007236;28;20400;-58
2021/12/01 10:40:15;;;;;;;20.70;8.70;;;9.40;99.90;;;;;;5006869;28;20412;-58
2021/12/01 10:42:55;;;;;;;10.98;4.18;;;9.50;99.90;;;;;;5008984;28;20460;-54
2021/12/01 10:45:24;;;;;;;5.10;1.10;;;9.40;99.90;;;;;;5007901;28;20408;-54
2021/12/01 10:47:50;;;;;;;3.60;0.60;;;9.40;99.90;;;;;;5008177;28;20412;-56
2021/12/01 10:50:20;;;;;;;6.20;2.28;;;9.40;99.90;;;;;;5010455;28;20474;-55
2021/12/01 10:52:52;;;;;;;3.40;0.50;;;9.40;99.90;;;;;;5013580;28;20435;-52
2021/12/01 10:55:22;;;;;;;3.40;0.40;;;9.40;99.90;;;;;;5007192;28;20492;-53
2021/12/01 10:57:55;;;;;;;4.63;1.58;;;9.60;99.90;;;;;;5010351;28;20467;-53
2021/12/01 11:00:24;;;;;;;3.95;1.30;;;9.60;99.90;;;;;;5008208;28;20400;-53
2021/12/01 11:03:04;;;;;;;4.47;0.52;;;9.70;99.90;;;;;;5007020;28;20417;-53
2021/12/01 11:05:45;;;;;;;4.57;0.80;;;9.50;99.90;;;;;;5010193;28;20388;-53
2021/12/01 11:08:30;;;;;;;4.40;1.50;;;9.50;99.90;;;;;;5014049;28;20405;-53
2021/12/01 11:11:12;;;;;;;4.50;0.80;;;9.50;99.90;;;;;;5015189;28;20464;-59
2021/12/01 11:13:43;;;;;;;3.50;0.60;;;9.60;99.90;;;;;;5009421;28;20389;-53
2021/12/01 11:16:11;;;;;;;4.50;1.30;;;9.50;99.90;;;;;;5008743;28;20400;-53
2021/12/01 11:18:43;;;;;;;5.20;1.77;;;9.40;99.90;;;;;;5015031;28;20870;-53
2021/12/01 11:21:15;;;;;;;6.40;3.10;;;9.40;99.90;;;;;;5014108;28;20461;-53
2021/12/01 11:23:43;;;;;;;3.70;1.17;;;9.50;99.90;;;;;;5014259;28;20389;-55
2021/12/01 11:26:19;;;;;;;3.80;0.50;;;9.50;99.90;;;;;;5010364;28;20426;-53
2021/12/01 11:28:48;;;;;;;3.40;0.60;;;9.50;99.90;;;;;;5015624;28;20376;-53
2021/12/01 11:31:19;;;;;;;3.60;0.50;;;9.60;99.90;;;;;;5014331;28;20393;-53
2021/12/01 11:33:46;;;;;;;3.50;0.70;;;9.70;99.90;;;;;;5015187;28;20421;-53
2021/12/01 11:36:25;;;;;;;3.50;0.70;;;9.70;99.90;;;;;;5014950;28;20404;-54
2021/12/01 11:38:53;;;;;;;3.20;0.43;;;9.60;99.90;;;;;;5014864;28;20427;-53
2021/12/01 11:41:20;;;;;;;3.50;0.70;;;9.50;99.90;;;;;;5014634;28;20460;-53
2021/12/01 11:43:50;;;;;;;4.80;1.15;;;9.50;99.90;;;;;;5014709;28;20906;-53
2021/12/01 11:46:17;;;;;;;3.10;0.30;;;9.50;99.90;;;;;;5014403;28;20395;-53
2021/12/01 11:48:46;;;;;;;5.03;0.60;;;9.70;99.90;;;;;;5014522;28;20381;-54
2021/12/01 11:51:22;;;;;;;3.80;1.10;;;9.80;99.90;;;;;;5014335;28;20416;-53
2021/12/01 11:53:55;;;;;;;4.40;0.80;;;9.80;99.90;;;;;;5013369;28;20393;-53
2021/12/01 11:56:38;;;;;;;3.38;0.75;;;9.80;99.90;;;;;;5010979;28;20901;-53
2021/12/01 11:59:03;;;;;;;3.30;0.60;;;9.90;99.90;;;;;;5010229;28;20424;-53
2021/12/01 12:01:38;;;;;;;3.60;0.60;;;10.10;99.90;;;;;;5010737;28;20397;-53
2021/12/01 12:04:06;;;;;;;3.53;0.80;;;10.20;99.90;;;;;;5010562;28;20397;-53
2021/12/01 12:06:43;;;;;;;3.30;0.60;;;10.10;99.90;;;;;;5011434;28;20396;-54
2021/12/01 12:09:18;;;;;;;3.90;1.40;;;10.20;99.90;;;;;;5011124;28;20413;-53
2021/12/01 12:12:17;;;;;;;3.33;0.60;;;10.50;99.90;;;;;;5010309;28;20831;-53
2021/12/01 12:14:45;;;;;;;3.70;0.85;;;10.50;99.90;;;;;;4994369;28;20749;-53
2021/12/01 12:17:12;;;;;;;4.00;1.10;;;10.60;99.90;;;;;;5010274;28;20416;-53
2021/12/01 12:20:02;;;;;;;3.60;0.70;;;10.50;99.90;;;;;;5010832;28;20398;-53
2021/12/01 12:22:52;;;;;;;4.70;1.10;;;10.70;99.90;;;;;;5009506;28;20444;-54
2021/12/01 12:25:48;;;;;;;3.40;0.50;;;10.80;99.90;;;;;;5009936;28;20539;-54
2021/12/01 12:28:38;;;;;;;3.90;0.70;;;10.90;99.90;;;;;;5010504;28;20389;-55
2021/12/01 12:31:26;;;;;;;3.50;0.50;;;11.00;99.90;;;;;;5010492;28;20400;-55
2021/12/01 12:33:58;;;;;;;3.28;0.40;;;11.20;99.90;;;;;;5010816;28;20576;-53
2021/12/01 12:36:47;;;;;;;3.90;0.40;;;11.20;99.90;;;;;;5010578;28;20423;-57
2021/12/01 12:39:14;;;;;;;3.30;0.50;;;11.10;99.90;;;;;;5010134;28;20455;-55
2021/12/01 12:41:54;;;;;;;3.40;0.60;;;11.20;99.90;;;;;;5010518;28;20405;-56
2021/12/01 12:44:29;;;;;;;3.40;0.50;;;11.40;99.90;;;;;;5010272;28;20393;-55
2021/12/01 12:47:10;;;;;;;3.20;0.30;;;11.10;99.90;;;;;;5010653;28;20411;-55
2021/12/01 12:49:36;;;;;;;3.90;0.80;;;11.00;99.90;;;;;;5011158;28;20878;-55
2021/12/01 12:52:27;;;;;;;3.22;0.30;;;10.80;99.90;;;;;;5010313;28;20440;-60
2021/12/01 12:55:01;;;;;;;3.40;0.50;;;10.70;99.90;;;;;;5007442;28;20421;-53
2021/12/01 12:57:59;;;;;;;8.80;0.70;;;10.50;99.90;;;;;;5010816;28;20399;-53
2021/12/01 13:00:47;;;;;;;3.50;0.60;;;10.40;99.90;;;;;;5010317;28;20385;-53
2021/12/01 13:03:26;;;;;;;3.20;0.40;;;10.30;99.90;;;;;;5009519;28;20417;-54
2021/12/01 13:05:52;;;;;;;6.43;1.90;;;10.20;99.90;;;;;;5007949;28;20421;-53
2021/12/01 13:08:38;;;;;;;5.40;1.88;;;10.10;99.90;;;;;;5009319;28;20506;-53